createdAt,value
2018-05-07T00:01:45.925Z,4.60
2018-05-07T00:04:20.795Z,5.37
2018-05-07T00:06:55.562Z,4.50
2018-05-07T00:09:31.496Z,4.87
2018-05-07T00:12:06.074Z,4.57
2018-05-07T00:14:41.021Z,5.40
2018-05-07T00:17:15.545Z,5.13
2018-05-07T00:19:50.377Z,5.20
2018-05-07T00:22:25.121Z,4.60
2018-05-07T00:25:00.028Z,5.10
2018-05-07T00:27:35.053Z,4.50
2018-05-07T00:30:09.787Z,4.60
2018-05-07T00:32:44.502Z,4.63
2018-05-07T00:35:19.437Z,4.37
2018-05-07T00:37:54.289Z,6.57
2018-05-07T00:40:28.693Z,4.90
2018-05-07T00:43:03.525Z,4.57
2018-05-07T00:45:38.353Z,5.00
2018-05-07T00:48:13.053Z,5.30
2018-05-07T00:50:47.680Z,4.80
2018-05-07T00:53:22.441Z,5.27
2018-05-07T00:55:57.005Z,4.80
2018-05-07T00:58:31.817Z,5.07
2018-05-07T01:01:06.497Z,5.37
2018-05-07T01:03:41.509Z,5.10
2018-05-07T01:06:16.048Z,5.50
2018-05-07T01:08:51.009Z,6.30
2018-05-07T01:11:25.724Z,5.57
2018-05-07T01:14:00.864Z,5.20
2018-05-07T01:16:35.722Z,5.70
2018-05-07T01:19:10.893Z,4.80
2018-05-07T01:21:45.685Z,5.73
2018-05-07T01:24:20.630Z,5.43
2018-05-07T01:26:55.338Z,5.13
2018-05-07T01:29:30.089Z,6.00
2018-05-07T01:32:04.528Z,5.50
2018-05-07T01:34:39.346Z,6.27
2018-05-07T01:37:14.276Z,6.00
2018-05-07T01:39:49.105Z,5.93
2018-05-07T01:42:23.829Z,5.70
2018-05-07T01:44:58.659Z,5.70
2018-05-07T01:47:33.597Z,5.77
2018-05-07T01:50:08.489Z,5.60
2018-05-07T01:52:43.330Z,5.70
2018-05-07T01:55:18.097Z,6.33
2018-05-07T01:57:52.981Z,6.13
2018-05-07T02:00:27.658Z,6.17
2018-05-07T02:03:02.998Z,6.03
2018-05-07T02:05:37.548Z,6.20
2018-05-07T02:08:12.144Z,6.50
2018-05-07T02:10:47.006Z,6.13
2018-05-07T02:13:21.908Z,5.97
2018-05-07T02:15:56.846Z,5.73
2018-05-07T02:18:31.460Z,5.80
2018-05-07T02:21:06.044Z,6.53
2018-05-07T02:23:40.753Z,7.00
2018-05-07T02:26:15.680Z,6.87
2018-05-07T02:28:50.445Z,6.73
2018-05-07T02:31:25.395Z,6.30
2018-05-07T02:34:00.147Z,6.57
2018-05-07T02:36:34.655Z,6.30
2018-05-07T02:39:09.498Z,6.50
2018-05-07T02:41:44.320Z,6.87
2018-05-07T02:44:18.955Z,6.47
2018-05-07T02:46:53.942Z,6.40
2018-05-07T02:49:28.534Z,6.97
2018-05-07T02:52:03.270Z,6.90
2018-05-07T02:54:38.110Z,7.33
2018-05-07T02:57:12.902Z,6.60
2018-05-07T02:59:47.740Z,6.80
2018-05-07T03:02:22.561Z,7.27
2018-05-07T03:04:57.186Z,6.30
2018-05-07T03:07:32.138Z,6.70
2018-05-07T03:10:06.581Z,7.20
2018-05-07T03:12:41.189Z,7.00
2018-05-07T03:15:15.993Z,7.83
2018-05-07T03:17:50.576Z,7.30
2018-05-07T03:20:25.377Z,7.87
2018-05-07T03:23:00.484Z,7.27
2018-05-07T03:25:35.337Z,7.47
2018-05-07T03:28:10.367Z,6.67
2018-05-07T03:30:45.160Z,7.17
2018-05-07T03:33:20.141Z,6.80
2018-05-07T03:35:54.877Z,6.60
2018-05-07T03:38:29.670Z,7.90
2018-05-07T03:41:04.430Z,8.03
2018-05-07T03:43:39.098Z,7.43
2018-05-07T03:46:13.649Z,7.10
2018-05-07T03:48:48.569Z,6.90
2018-05-07T03:51:23.328Z,6.60
2018-05-07T03:53:58.051Z,7.97
2018-05-07T03:56:32.958Z,7.20
2018-05-07T03:59:07.769Z,7.20
2018-05-07T04:01:42.368Z,7.40
2018-05-07T04:04:17.092Z,8.07
2018-05-07T04:06:51.910Z,6.97
2018-05-07T04:09:26.823Z,6.63
2018-05-07T04:12:01.941Z,6.50
2018-05-07T04:14:37.217Z,7.70
2018-05-07T04:17:23.110Z,7.93
2018-05-07T04:20:09.880Z,7.83
2018-05-07T04:22:55.521Z,5.83
2018-05-07T04:25:29.935Z,6.00
2018-05-07T04:28:04.676Z,5.90
2018-05-07T04:30:39.585Z,5.87
2018-05-07T04:33:14.312Z,6.03
2018-05-07T04:35:49.037Z,7.10
2018-05-07T04:38:23.635Z,5.90
2018-05-07T04:40:58.445Z,6.27
2018-05-07T04:43:33.434Z,6.17
2018-05-07T04:46:08.287Z,6.80
2018-05-07T04:48:43.124Z,7.93
2018-05-07T04:51:18.146Z,7.00
2018-05-07T04:53:53.076Z,8.23
2018-05-07T04:56:27.809Z,7.80
2018-05-07T04:59:02.414Z,8.00
2018-05-07T05:01:37.360Z,8.20
2018-05-07T05:04:12.067Z,7.30
2018-05-07T05:06:47.034Z,8.40
2018-05-07T05:09:22.575Z,7.37
2018-05-07T05:11:57.461Z,7.60
2018-05-07T05:14:32.340Z,7.90
2018-05-07T05:17:07.456Z,8.57
2018-05-07T05:19:42.176Z,8.53
2018-05-07T05:22:16.741Z,8.70
2018-05-07T05:24:52.170Z,8.60
2018-05-07T05:27:27.215Z,7.93
2018-05-07T05:30:01.924Z,8.60
2018-05-07T05:32:36.913Z,8.90
2018-05-07T05:35:11.557Z,8.60
2018-05-07T05:37:46.417Z,8.57
2018-05-07T05:40:21.921Z,8.43
2018-05-07T05:42:57.200Z,7.97
2018-05-07T05:45:33.477Z,8.03
2018-05-07T05:48:08.107Z,7.83
2018-05-07T05:50:42.957Z,7.77
2018-05-07T05:53:17.665Z,8.30
2018-05-07T05:55:52.265Z,7.83
2018-05-07T05:58:26.907Z,7.73
2018-05-07T06:01:01.553Z,7.80
2018-05-07T06:03:36.276Z,7.03
2018-05-07T06:06:11.507Z,7.20
2018-05-07T06:08:46.561Z,6.50
2018-05-07T06:11:21.461Z,6.53
2018-05-07T06:13:56.318Z,6.70
2018-05-07T06:16:31.117Z,7.07
2018-05-07T06:19:05.873Z,6.37
2018-05-07T06:21:40.773Z,6.23
2018-05-07T06:24:15.738Z,7.03
2018-05-07T06:26:50.748Z,5.50
2018-05-07T06:29:25.757Z,6.10
2018-05-07T06:32:00.556Z,6.40
2018-05-07T06:34:35.573Z,5.70
2018-05-07T06:37:10.057Z,6.83
2018-05-07T06:39:45.143Z,6.53
2018-05-07T06:42:20.278Z,6.47
2018-05-07T06:44:55.226Z,5.10
2018-05-07T06:47:30.858Z,5.53
2018-05-07T06:50:05.369Z,4.80
2018-05-07T06:52:40.371Z,4.50
2018-05-07T06:55:15.141Z,4.73
2018-05-07T06:57:49.873Z,4.60
2018-05-07T07:00:24.673Z,4.60
2018-05-07T07:02:59.383Z,4.43
2018-05-07T07:05:34.078Z,4.40
2018-05-07T07:08:08.801Z,4.17
2018-05-07T07:10:43.452Z,4.33
2018-05-07T07:13:18.130Z,4.33
2018-05-07T07:15:53.297Z,4.50
2018-05-07T07:18:28.088Z,3.63
2018-05-07T07:21:02.925Z,4.10
2018-05-07T07:23:37.686Z,4.53
2018-05-07T07:26:12.527Z,3.80
2018-05-07T07:28:47.462Z,3.70
2018-05-07T07:31:22.292Z,4.07
2018-05-07T07:33:57.127Z,3.73
2018-05-07T07:36:31.847Z,3.13
2018-05-07T07:39:06.319Z,3.40
2018-05-07T07:41:41.224Z,3.50
2018-05-07T07:44:16.032Z,3.00
2018-05-07T07:46:50.889Z,3.67
2018-05-07T07:49:25.775Z,3.07
2018-05-07T07:52:00.825Z,3.00
2018-05-07T07:54:35.653Z,3.37
2018-05-07T07:57:10.343Z,3.20
2018-05-07T07:59:45.080Z,3.20
2018-05-07T08:02:19.725Z,3.70
2018-05-07T08:04:54.734Z,3.07
2018-05-07T08:07:29.912Z,3.20
2018-05-07T08:10:04.436Z,2.40
2018-05-07T08:12:39.267Z,3.40
2018-05-07T08:15:13.991Z,2.87
2018-05-07T08:17:48.633Z,2.70
2018-05-07T08:20:23.540Z,3.50
2018-05-07T08:22:58.357Z,3.57
2018-05-07T08:25:33.530Z,3.10
2018-05-07T08:28:08.132Z,3.30
2018-05-07T08:30:42.785Z,3.43
2018-05-07T08:33:17.502Z,3.53
2018-05-07T08:35:52.100Z,3.30
2018-05-07T08:38:27.101Z,3.43
2018-05-07T08:41:02.001Z,3.13
2018-05-07T08:43:37.003Z,3.67
2018-05-07T09:07:11.413Z,3.50
2018-05-07T09:09:46.320Z,3.30
2018-05-07T09:12:21.033Z,2.60
2018-05-07T09:14:56.111Z,3.53
2018-05-07T09:17:30.641Z,3.10
2018-05-07T09:20:05.636Z,3.50
2018-05-07T09:22:40.432Z,2.80
2018-05-07T09:25:15.392Z,3.10
2018-05-07T09:27:50.241Z,2.97
2018-05-07T09:30:25.076Z,3.20
2018-05-07T09:32:59.676Z,3.93
2018-05-07T09:35:34.532Z,3.33
2018-05-07T09:38:09.360Z,3.30
2018-05-07T09:40:44.316Z,3.10
2018-05-07T09:43:19.279Z,2.57
2018-05-07T09:45:54.358Z,3.43
2018-05-07T09:48:29.217Z,3.47
2018-05-07T09:51:03.843Z,3.27
2018-05-07T09:53:38.525Z,3.67
2018-05-07T09:56:13.398Z,3.00
2018-05-07T09:58:57.645Z,4.00
2018-05-07T10:01:33.156Z,3.70
2018-05-07T10:04:08.440Z,3.30
2018-05-07T10:06:43.163Z,3.33
2018-05-07T10:09:18.069Z,3.40
2018-05-07T10:11:52.836Z,3.60
2018-05-07T10:14:27.284Z,4.60
2018-05-07T10:17:02.606Z,3.83
2018-05-07T10:19:37.436Z,3.90
2018-05-07T10:22:12.360Z,3.70
2018-05-07T10:24:47.071Z,3.50
2018-05-07T10:27:21.922Z,4.23
2018-05-07T10:29:56.650Z,3.70
2018-05-07T10:32:31.523Z,3.97
2018-05-07T10:35:06.485Z,3.40
2018-05-07T10:37:41.232Z,3.60
2018-05-07T10:40:16.116Z,3.93
2018-05-07T10:42:50.945Z,3.47
2018-05-07T10:45:25.480Z,2.80
2018-05-07T10:48:00.249Z,3.13
2018-05-07T10:50:35.285Z,2.80
2018-05-07T10:53:10.013Z,3.40
2018-05-07T10:55:44.841Z,2.60
2018-05-07T10:58:19.897Z,2.90
2018-05-07T11:00:54.772Z,3.40
2018-05-07T11:03:29.446Z,3.37
2018-05-07T11:06:04.265Z,3.10
2018-05-07T11:08:39.081Z,2.80
2018-05-07T11:11:14.148Z,2.73
2018-05-07T11:13:49.182Z,2.80
2018-05-07T11:16:23.915Z,2.60
2018-05-07T11:18:58.642Z,3.10
2018-05-07T11:21:33.363Z,2.70
2018-05-07T11:24:08.239Z,3.10
2018-05-07T11:26:43.088Z,2.70
2018-05-07T11:29:18.053Z,2.90
2018-05-07T11:31:52.901Z,3.00
2018-05-07T11:34:27.833Z,3.00
2018-05-07T11:37:02.767Z,3.10
2018-05-07T11:39:37.640Z,2.70
2018-05-07T11:42:12.617Z,2.53
2018-05-07T11:44:47.547Z,2.83
2018-05-07T11:47:22.586Z,2.97
2018-05-07T11:49:57.103Z,3.00
2018-05-07T11:52:32.177Z,3.00
2018-05-07T11:55:06.713Z,2.33
2018-05-07T11:57:42.041Z,2.63
2018-05-07T12:00:16.621Z,2.80
2018-05-07T12:02:51.798Z,2.87
2018-05-07T12:05:26.800Z,2.30
2018-05-07T12:08:01.562Z,2.83
2018-05-07T12:10:36.533Z,3.00
2018-05-07T12:13:11.616Z,2.70
2018-05-07T12:15:46.489Z,2.60
2018-05-07T12:18:21.137Z,3.37
2018-05-07T12:20:55.901Z,2.50
2018-05-07T12:23:31.029Z,3.00
2018-05-07T12:26:05.837Z,2.57
2018-05-07T12:28:40.789Z,2.73
2018-05-07T12:31:15.806Z,3.43
2018-05-07T12:33:50.689Z,3.23
2018-05-07T12:36:25.357Z,3.43
2018-05-07T12:39:00.229Z,2.90
2018-05-07T12:41:35.064Z,3.00
2018-05-07T12:44:10.116Z,2.70
2018-05-07T12:46:44.978Z,2.87
2018-05-07T12:49:19.760Z,2.70
2018-05-07T12:51:54.559Z,3.10
2018-05-07T12:54:29.341Z,3.00
2018-05-07T12:57:04.273Z,2.97
2018-05-07T12:59:38.953Z,4.03
2018-05-07T13:02:13.772Z,3.10
2018-05-07T13:04:48.413Z,2.70
2018-05-07T13:07:23.103Z,3.50
2018-05-07T13:09:57.814Z,2.93
2018-05-07T13:12:32.737Z,2.83
2018-05-07T13:15:07.553Z,3.33
2018-05-07T13:17:42.480Z,3.17
2018-05-07T13:20:17.228Z,3.80
2018-05-07T13:22:52.056Z,3.70
2018-05-07T13:25:26.988Z,3.37
2018-05-07T13:28:01.788Z,3.13
2018-05-07T13:30:36.973Z,2.63
2018-05-07T13:46:15.786Z,2.60
2018-05-07T13:48:50.484Z,2.40
2018-05-07T13:51:25.283Z,2.40
2018-05-07T13:54:00.093Z,2.60
2018-05-07T13:56:34.900Z,2.50
2018-05-07T13:59:09.588Z,2.50
2018-05-07T14:01:44.661Z,2.40
2018-05-07T14:04:19.505Z,2.20
2018-05-07T14:06:54.084Z,2.37
2018-05-07T14:09:29.108Z,2.43
2018-05-07T14:12:03.797Z,2.53
2018-05-07T14:14:38.676Z,2.97
2018-05-07T14:17:13.433Z,2.83
2018-05-07T14:19:48.192Z,2.83
2018-05-07T14:22:23.034Z,2.83
2018-05-07T14:24:57.761Z,2.63
2018-05-07T14:27:32.633Z,2.50
2018-05-07T14:30:07.514Z,2.27
2018-05-07T14:32:42.441Z,2.10
2018-05-07T14:35:17.140Z,2.50
2018-05-07T14:37:51.561Z,2.90
2018-05-07T14:40:26.549Z,2.30
2018-05-07T14:43:01.553Z,2.83
2018-05-07T14:45:36.663Z,2.77
2018-05-07T14:48:11.961Z,2.60
2018-05-07T14:50:46.672Z,2.50
2018-05-07T14:53:21.494Z,2.90
2018-05-07T14:55:56.296Z,2.47
2018-05-07T14:58:31.334Z,2.90
2018-05-07T15:01:06.136Z,2.90
2018-05-07T15:03:40.704Z,3.10
2018-05-07T15:06:15.609Z,5.80
2018-05-07T15:08:50.694Z,5.73
2018-05-07T15:11:25.625Z,2.40
2018-05-07T15:14:11.649Z,1.70
2018-05-07T15:16:46.233Z,2.53
2018-05-07T15:19:20.958Z,2.60
2018-05-07T15:54:55.427Z,2.40
2018-05-07T15:57:30.149Z,1.87
2018-05-07T16:00:04.406Z,2.00
2018-05-07T16:02:39.612Z,2.47
2018-05-07T16:05:14.184Z,2.40
2018-05-07T16:07:49.142Z,1.80
2018-05-07T16:10:23.734Z,2.30
2018-05-07T16:12:58.635Z,2.40
2018-05-07T16:15:33.648Z,2.40
2018-05-07T16:18:08.499Z,2.17
2018-05-07T16:20:43.504Z,2.47
2018-05-07T16:23:18.362Z,2.20
2018-05-07T16:25:53.038Z,2.43
2018-05-07T16:28:27.752Z,1.87
2018-05-07T16:31:02.633Z,2.30
2018-05-07T16:33:37.485Z,1.73
2018-05-07T16:36:12.104Z,2.13
2018-05-07T16:38:46.708Z,2.27
2018-05-07T16:41:21.633Z,1.90
2018-05-07T16:43:56.540Z,2.40
2018-05-07T16:46:31.313Z,2.27
2018-05-07T16:49:06.262Z,2.53
2018-05-07T16:51:40.998Z,2.30
2018-05-07T16:54:15.978Z,2.30
2018-05-07T16:56:50.829Z,2.10
2018-05-07T16:59:25.625Z,2.50
2018-05-07T17:02:00.614Z,2.20
2018-05-07T17:04:35.359Z,2.20
2018-05-07T17:07:10.033Z,1.87
2018-05-07T17:09:44.945Z,2.40
2018-05-07T17:12:19.596Z,1.93
2018-05-07T17:14:54.373Z,2.20
2018-05-07T17:17:29.309Z,3.00
2018-05-07T17:20:03.902Z,2.20
2018-05-07T17:22:38.988Z,2.80
2018-05-07T17:25:13.837Z,1.83
2018-05-07T17:27:48.710Z,2.40
2018-05-07T17:30:23.636Z,2.60
2018-05-07T17:32:59.229Z,2.23
2018-05-07T17:35:33.853Z,2.40
2018-05-07T17:38:08.902Z,2.03
2018-05-07T17:40:43.705Z,2.80
2018-05-07T17:56:21.611Z,2.50
2018-05-07T17:58:56.402Z,2.10
2018-05-07T18:01:31.286Z,1.93
2018-05-07T18:04:05.983Z,2.03
2018-05-07T18:06:40.822Z,2.33
2018-05-07T18:09:15.205Z,2.50
2018-05-07T18:11:50.222Z,1.77
2018-05-07T18:14:25.093Z,1.90
2018-05-07T18:16:59.886Z,2.27
2018-05-07T18:19:34.733Z,2.20
2018-05-07T18:22:09.589Z,2.20
2018-05-07T18:24:44.437Z,2.17
2018-05-07T18:27:18.887Z,2.60
2018-05-07T18:29:53.744Z,2.50
2018-05-07T18:32:28.834Z,2.03
2018-05-07T18:35:03.421Z,2.60
2018-05-07T18:37:38.385Z,2.40
2018-05-07T18:40:13.013Z,2.10
2018-05-07T18:42:47.949Z,2.50
2018-05-07T18:45:22.757Z,2.10
2018-05-07T18:47:57.402Z,2.60
2018-05-07T18:50:32.130Z,2.20
2018-05-07T18:53:06.775Z,2.40
2018-05-07T18:55:41.333Z,2.97
2018-05-07T18:58:15.941Z,2.97
2018-05-07T19:00:50.677Z,2.40
2018-05-07T19:03:25.276Z,2.70
2018-05-07T19:06:00.006Z,2.73
2018-05-07T19:08:34.771Z,2.63
2018-05-07T19:11:09.481Z,2.60
2018-05-07T19:13:44.265Z,3.23
2018-05-07T19:16:19.192Z,2.47
2018-05-07T19:18:54.184Z,2.20
2018-05-07T19:21:29.686Z,2.67
2018-05-07T19:24:04.945Z,2.07
2018-05-07T19:26:39.848Z,3.07
2018-05-07T19:29:14.601Z,2.90
2018-05-07T19:31:49.340Z,3.30
2018-05-07T19:34:24.057Z,3.50
2018-05-07T19:36:58.684Z,3.53
2018-05-07T19:39:33.515Z,3.37
2018-05-07T19:42:08.254Z,2.93
2018-05-07T19:44:43.069Z,3.00
2018-05-07T19:47:17.676Z,2.90
2018-05-07T19:49:52.429Z,3.17
2018-05-07T19:52:27.136Z,2.67
2018-05-07T19:55:01.886Z,3.50
2018-05-07T19:57:36.721Z,3.03
2018-05-07T20:00:11.409Z,3.13
2018-05-07T20:02:46.173Z,3.33
2018-05-07T20:05:21.062Z,3.30
2018-05-07T20:07:55.653Z,2.60
2018-05-07T20:10:30.558Z,3.00
2018-05-07T20:13:05.394Z,3.77
2018-05-07T20:15:40.073Z,3.00
2018-05-07T20:18:15.650Z,3.33
2018-05-07T20:20:50.497Z,3.73
2018-05-07T20:23:25.130Z,3.10
2018-05-07T20:25:59.828Z,3.00
2018-05-07T20:28:34.461Z,3.30
2018-05-07T20:31:09.109Z,3.50
2018-05-07T20:33:43.562Z,3.57
2018-05-07T20:36:18.338Z,3.10
2018-05-07T20:38:53.236Z,3.53
2018-05-07T20:41:28.030Z,3.07
2018-05-07T20:44:02.738Z,3.20
2018-05-07T20:46:38.290Z,3.23
2018-05-07T20:49:12.889Z,3.53
2018-05-07T20:51:47.770Z,3.40
2018-05-07T20:54:22.578Z,3.60
2018-05-07T20:56:57.326Z,3.40
2018-05-07T20:59:31.802Z,3.73
2018-05-07T21:02:06.449Z,3.40
2018-05-07T21:04:41.361Z,3.60
2018-05-07T21:07:16.109Z,3.90
2018-05-07T21:09:50.977Z,5.07
2018-05-07T21:12:25.765Z,3.13
2018-05-07T21:15:00.510Z,3.50
2018-05-07T21:17:35.267Z,3.53
2018-05-07T21:20:09.997Z,3.53
2018-05-07T21:22:44.350Z,3.37
2018-05-07T21:25:18.942Z,3.10
2018-05-07T21:27:53.857Z,3.30
2018-05-07T21:30:28.680Z,3.27
2018-05-07T21:33:03.521Z,3.80
2018-05-07T21:35:38.293Z,3.77
2018-05-07T21:38:12.945Z,3.70
2018-05-07T21:40:47.873Z,4.07
2018-05-07T21:43:22.942Z,3.97
2018-05-07T21:45:58.285Z,3.50
2018-05-07T21:48:33.132Z,3.60
2018-05-07T21:51:08.061Z,3.77
2018-05-07T21:53:43.324Z,3.67
2018-05-07T21:56:18.717Z,3.70
2018-05-07T21:58:53.659Z,3.50
2018-05-07T22:01:28.281Z,3.70
2018-05-07T22:04:02.866Z,3.70
2018-05-07T22:06:37.614Z,3.90
2018-05-07T22:09:12.341Z,3.27
2018-05-07T22:11:46.996Z,3.83
2018-05-07T22:14:21.891Z,3.40
2018-05-07T22:16:57.585Z,3.43
2018-05-07T22:19:32.309Z,3.80
2018-05-07T22:22:07.097Z,4.10
2018-05-07T22:24:41.868Z,4.70
2018-05-07T22:27:16.455Z,4.10
2018-05-07T22:29:51.272Z,4.50
2018-05-07T22:32:25.951Z,4.07
2018-05-07T22:35:00.633Z,4.10
2018-05-07T22:37:35.557Z,3.90
2018-05-07T22:40:10.161Z,3.87
2018-05-07T22:42:44.889Z,4.60
2018-05-07T22:45:19.601Z,4.40
2018-05-07T22:47:54.493Z,3.50
2018-05-07T22:50:29.358Z,3.93
2018-05-07T22:53:04.098Z,4.07
2018-05-07T22:55:38.740Z,5.00
2018-05-07T22:58:13.181Z,4.30
2018-05-07T23:00:48.013Z,4.37
2018-05-07T23:03:22.473Z,4.50
2018-05-07T23:05:57.333Z,4.70
2018-05-07T23:08:32.065Z,4.50
2018-05-07T23:11:06.606Z,4.60
2018-05-07T23:13:41.502Z,5.60
2018-05-07T23:16:16.269Z,4.87
2018-05-07T23:18:50.986Z,4.77
2018-05-07T23:21:25.299Z,4.80
2018-05-07T23:24:00.210Z,4.53
2018-05-07T23:26:35.061Z,4.70
2018-05-07T23:29:10.068Z,4.53
2018-05-07T23:31:44.817Z,4.57
2018-05-07T23:34:19.425Z,4.30
2018-05-07T23:36:54.382Z,5.17
2018-05-07T23:39:29.056Z,4.50
2018-05-07T23:42:03.700Z,4.70
2018-05-07T23:44:38.490Z,4.67
2018-05-07T23:47:13.209Z,4.90
2018-05-07T23:49:48.292Z,4.90
2018-05-07T23:52:22.851Z,4.63
2018-05-07T23:54:57.725Z,4.70
2018-05-07T23:57:32.546Z,5.30
